Time;durP1;ratioP1;P1;durP2;ratioP2;P2;SDS_P1;SDS_P2;PMS_P1;PMS_P2;Temp;Humidity;BMP_temperature;BMP_pressure;BME280_temperature;BME280_humidity;BME280_pressure;Samples;Min_cycle;Max_cycle;Signal;HPM_P1;HPM_P2
2021/06/03 00:01:55;;;;;;;8.40;7.00;;;;;;;;;;5037106;28;20029;-64
2021/06/03 00:04:21;;;;;;;9.85;7.13;;;;;;;;;;5034604;28;20022;-64
2021/06/03 00:06:47;;;;;;;10.82;7.40;;;;;;;;;;5034655;28;20097;-64
2021/06/03 00:09:14;;;;;;;9.13;7.13;;;;;;;;;;5034237;28;20499;-64
2021/06/03 00:11:40;;;;;;;8.73;7.15;;;;;;;;;;5030423;28;20037;-64
2021/06/03 00:14:06;;;;;;;8.80;7.15;;;;;;;;;;5036997;28;20033;-63
2021/06/03 00:16:35;;;;;;;9.77;7.38;;;;;;;;;;5034100;28;20479;-64
2021/06/03 00:19:04;;;;;;;11.98;7.68;;;;;;;;;;5035318;28;20417;-64
2021/06/03 00:21:30;;;;;;;8.48;7.50;;;;;;;;;;5034367;28;20037;-64
2021/06/03 00:23:56;;;;;;;8.40;7.43;;;;;;;;;;5032850;28;20053;-64
2021/06/03 00:26:22;;;;;;;9.27;8.00;;;;;;;;;;5033241;28;20033;-64
2021/06/03 00:28:48;;;;;;;16.38;7.90;;;;;;;;;;5036013;28;20396;-64
2021/06/03 00:31:14;;;;;;;9.18;7.60;;;;;;;;;;5033367;28;20026;-64
2021/06/03 00:33:40;;;;;;;9.05;7.30;;;;;;;;;;5033614;28;20037;-64
2021/06/03 00:36:07;;;;;;;9.20;7.43;;;;;;;;;;5035166;28;20045;-64
2021/06/03 00:38:33;;;;;;;10.40;7.90;;;;;;;;;;5014088;28;20095;-64
2021/06/03 00:40:59;;;;;;;8.20;7.32;;;;;;;;;;5036819;28;20105;-64
2021/06/03 00:43:25;;;;;;;9.65;7.90;;;;;;;;;;5033858;28;20125;-64
2021/06/03 00:45:51;;;;;;;9.90;8.13;;;;;;;;;;5036295;28;20025;-64
2021/06/03 00:48:17;;;;;;;9.50;7.25;;;;;;;;;;5043700;28;20139;-64
2021/06/03 00:50:48;;;;;;;9.88;7.35;;;;;;;;;;5030528;28;20049;-64
2021/06/03 00:53:14;;;;;;;9.50;8.27;;;;;;;;;;5033620;28;20061;-64
2021/06/03 00:55:41;;;;;;;10.07;8.43;;;;;;;;;;5034686;28;20063;-64
2021/06/03 00:58:07;;;;;;;10.30;8.52;;;;;;;;;;5033541;28;20025;-64
2021/06/03 01:00:33;;;;;;;9.52;8.40;;;;;;;;;;5033222;28;20022;-64
2021/06/03 01:02:59;;;;;;;11.75;8.52;;;;;;;;;;5032649;28;20476;-64
2021/06/03 01:05:30;;;;;;;10.35;8.30;;;;;;;;;;5031002;28;20212;-64
2021/06/03 01:07:58;;;;;;;8.68;7.53;;;;;;;;;;5036342;28;20060;-64
2021/06/03 01:10:28;;;;;;;11.02;8.43;;;;;;;;;;5033328;28;20021;-64
2021/06/03 01:12:54;;;;;;;9.82;7.53;;;;;;;;;;5033124;28;20105;-64
2021/06/03 01:15:20;;;;;;;13.43;8.63;;;;;;;;;;5034067;28;20183;-64
2021/06/03 01:17:47;;;;;;;10.07;8.15;;;;;;;;;;5030341;28;20029;-64
2021/06/03 01:20:13;;;;;;;9.73;8.02;;;;;;;;;;5033680;28;20397;-64
2021/06/03 01:22:42;;;;;;;9.77;7.78;;;;;;;;;;5034573;28;20036;-64
2021/06/03 01:25:11;;;;;;;8.98;7.70;;;;;;;;;;5032872;28;20018;-64
2021/06/03 01:27:38;;;;;;;9.70;7.65;;;;;;;;;;5032456;28;20031;-64
2021/06/03 01:30:04;;;;;;;10.20;8.00;;;;;;;;;;5032544;28;20435;-64
2021/06/03 01:32:31;;;;;;;9.15;7.75;;;;;;;;;;5030552;28;20021;-64
2021/06/03 01:34:57;;;;;;;12.15;8.35;;;;;;;;;;5036144;28;20100;-64
2021/06/03 01:37:23;;;;;;;11.48;8.50;;;;;;;;;;5033216;28;20128;-64
2021/06/03 01:39:50;;;;;;;11.98;8.68;;;;;;;;;;5032369;28;20044;-64
2021/06/03 01:42:17;;;;;;;10.50;7.30;;;;;;;;;;5032606;28;20033;-64
2021/06/03 01:44:44;;;;;;;9.07;7.70;;;;;;;;;;5029766;28;20050;-64
2021/06/03 01:47:10;;;;;;;9.02;7.75;;;;;;;;;;5034291;28;20082;-64
2021/06/03 01:49:37;;;;;;;10.43;7.60;;;;;;;;;;5032812;28;20025;-64
2021/06/03 01:52:04;;;;;;;10.85;7.60;;;;;;;;;;5032838;28;20026;-64
2021/06/03 01:54:31;;;;;;;10.30;7.50;;;;;;;;;;5034372;28;20021;-64
2021/06/03 01:56:57;;;;;;;10.18;8.07;;;;;;;;;;5031018;28;20289;-64
2021/06/03 01:59:23;;;;;;;11.45;7.55;;;;;;;;;;5030708;28;20025;-64
2021/06/03 02:01:50;;;;;;;9.20;7.93;;;;;;;;;;5034549;28;20025;-64
2021/06/03 02:04:16;;;;;;;9.05;7.60;;;;;;;;;;5032485;28;20021;-64
2021/06/03 02:06:43;;;;;;;9.40;8.27;;;;;;;;;;5032604;28;20034;-64
2021/06/03 02:09:10;;;;;;;10.48;7.38;;;;;;;;;;5032625;28;20215;-64
2021/06/03 02:11:39;;;;;;;8.95;7.47;;;;;;;;;;5027808;28;20602;-64
2021/06/03 02:14:07;;;;;;;8.90;7.47;;;;;;;;;;5043705;28;20025;-64
2021/06/03 02:16:35;;;;;;;8.20;7.07;;;;;;;;;;5032963;28;20474;-64
2021/06/03 02:19:03;;;;;;;8.65;7.22;;;;;;;;;;5034155;28;20385;-64
2021/06/03 02:21:31;;;;;;;10.32;7.40;;;;;;;;;;5036704;28;20056;-64
2021/06/03 02:23:58;;;;;;;8.32;7.43;;;;;;;;;;5035181;28;20044;-64
2021/06/03 02:26:25;;;;;;;10.30;7.40;;;;;;;;;;5034538;28;20366;-64
2021/06/03 02:28:51;;;;;;;10.00;7.93;;;;;;;;;;5038384;28;20037;-64
2021/06/03 02:31:17;;;;;;;11.07;7.82;;;;;;;;;;5035987;28;20029;-64
2021/06/03 02:33:43;;;;;;;9.65;7.65;;;;;;;;;;5037217;28;20519;-64
2021/06/03 02:36:10;;;;;;;8.80;7.43;;;;;;;;;;5035972;28;20040;-64
2021/06/03 02:38:36;;;;;;;9.10;7.15;;;;;;;;;;5032109;28;20037;-64
2021/06/03 02:41:06;;;;;;;10.27;7.43;;;;;;;;;;5039500;28;20036;-64
2021/06/03 02:43:32;;;;;;;10.23;7.75;;;;;;;;;;5037435;28;20112;-64
2021/06/03 02:45:59;;;;;;;11.02;7.82;;;;;;;;;;5036096;28;20021;-64
2021/06/03 02:48:24;;;;;;;9.70;7.47;;;;;;;;;;5035973;28;20429;-65
2021/06/03 02:50:52;;;;;;;9.75;7.68;;;;;;;;;;5033423;28;20037;-64
2021/06/03 02:53:18;;;;;;;10.98;8.10;;;;;;;;;;5035430;28;20100;-64
2021/06/03 02:55:45;;;;;;;9.68;7.90;;;;;;;;;;5036738;28;20164;-64
2021/06/03 02:58:11;;;;;;;9.13;7.70;;;;;;;;;;5035772;28;20021;-64
2021/06/03 03:00:37;;;;;;;11.07;7.45;;;;;;;;;;5035815;28;20071;-64
2021/06/03 03:03:08;;;;;;;8.80;7.75;;;;;;;;;;5034556;28;20073;-64
2021/06/03 03:05:34;;;;;;;9.32;7.65;;;;;;;;;;5016146;28;20018;-64
2021/06/03 03:08:00;;;;;;;10.25;7.75;;;;;;;;;;5039253;28;20044;-64
2021/06/03 03:10:28;;;;;;;10.38;7.80;;;;;;;;;;5035559;28;20026;-64
2021/06/03 03:12:54;;;;;;;10.13;7.88;;;;;;;;;;5035719;28;20032;-64
2021/06/03 03:15:20;;;;;;;9.75;7.70;;;;;;;;;;5034919;28;20060;-64
2021/06/03 03:17:46;;;;;;;10.45;8.00;;;;;;;;;;5032247;28;20030;-64
2021/06/03 03:20:13;;;;;;;9.55;7.90;;;;;;;;;;5035710;28;20032;-64
2021/06/03 03:22:40;;;;;;;10.30;8.48;;;;;;;;;;5036706;28;20096;-64
2021/06/03 03:25:07;;;;;;;11.55;7.85;;;;;;;;;;5034763;28;20021;-64
2021/06/03 03:27:33;;;;;;;11.97;8.43;;;;;;;;;;5035329;28;20028;-64
2021/06/03 03:29:59;;;;;;;9.20;7.95;;;;;;;;;;5032519;28;20092;-64
2021/06/03 03:32:25;;;;;;;10.68;7.82;;;;;;;;;;5033148;28;20519;-64
2021/06/03 03:34:51;;;;;;;9.80;8.00;;;;;;;;;;5037004;28;20022;-64
2021/06/03 03:37:17;;;;;;;8.98;7.95;;;;;;;;;;5034855;28;20032;-64
2021/06/03 03:39:44;;;;;;;12.27;8.00;;;;;;;;;;5034638;28;20503;-64
2021/06/03 03:42:10;;;;;;;12.77;8.32;;;;;;;;;;5034819;28;20392;-64
2021/06/03 03:44:36;;;;;;;10.40;8.68;;;;;;;;;;5030843;28;20022;-64
2021/06/03 03:47:02;;;;;;;10.65;7.97;;;;;;;;;;5038506;28;20021;-64
2021/06/03 03:49:28;;;;;;;9.48;8.05;;;;;;;;;;5034865;28;20032;-64
2021/06/03 03:51:54;;;;;;;10.65;7.97;;;;;;;;;;5035493;28;20017;-64
2021/06/03 03:54:20;;;;;;;10.77;8.27;;;;;;;;;;5034542;28;20405;-64
2021/06/03 03:56:46;;;;;;;12.55;7.70;;;;;;;;;;5031726;28;20037;-64
2021/06/03 03:59:12;;;;;;;11.02;8.27;;;;;;;;;;5035836;28;20075;-65
2021/06/03 04:01:38;;;;;;;9.25;8.05;;;;;;;;;;5036568;28;20068;-64
2021/06/03 04:04:04;;;;;;;10.52;8.15;;;;;;;;;;5034724;28;20087;-64
2021/06/03 04:06:30;;;;;;;9.45;8.45;;;;;;;;;;5034558;28;20025;-64
2021/06/03 04:08:56;;;;;;;9.73;8.10;;;;;;;;;;5032505;28;20118;-64
2021/06/03 04:11:24;;;;;;;12.32;8.45;;;;;;;;;;5033052;28;20026;-64
2021/06/03 04:13:50;;;;;;;10.55;8.50;;;;;;;;;;5037676;28;20087;-64
2021/06/03 04:16:16;;;;;;;9.60;8.40;;;;;;;;;;5034366;28;20075;-64
2021/06/03 04:18:42;;;;;;;10.13;8.23;;;;;;;;;;5034398;28;20025;-64
2021/06/03 04:21:09;;;;;;;9.95;8.55;;;;;;;;;;5033766;28;20218;-64
2021/06/03 04:23:35;;;;;;;12.38;8.75;;;;;;;;;;5030034;28;20053;-64
2021/06/03 04:26:00;;;;;;;10.63;8.05;;;;;;;;;;5037662;28;20075;-64
2021/06/03 04:28:26;;;;;;;8.70;7.70;;;;;;;;;;5033873;28;20025;-64
2021/06/03 04:30:52;;;;;;;9.63;8.27;;;;;;;;;;5035506;28;20021;-65
2021/06/03 04:33:21;;;;;;;9.95;7.80;;;;;;;;;;5034176;28;20025;-64
2021/06/03 04:35:47;;;;;;;;;;;;;;;;;;5030775;28;20086;-64
2021/06/03 04:38:13;;;;;;;9.98;7.40;;;;;;;;;;5034553;28;20012;-64
2021/06/03 04:40:39;;;;;;;9.18;6.93;;;;;;;;;;5034887;28;20026;-64
2021/06/03 04:43:05;;;;;;;8.82;7.53;;;;;;;;;;5033336;28;20025;-65
2021/06/03 04:45:36;;;;;;;8.05;7.25;;;;;;;;;;5033895;28;20064;-64
2021/06/03 04:48:01;;;;;;;10.07;7.43;;;;;;;;;;5034229;28;20032;-64
2021/06/03 04:50:27;;;;;;;8.68;7.50;;;;;;;;;;5031122;28;20657;-64
2021/06/03 04:52:53;;;;;;;8.95;7.38;;;;;;;;;;5035887;28;20029;-64
2021/06/03 04:55:21;;;;;;;11.13;7.50;;;;;;;;;;5033527;28;20477;-64
2021/06/03 04:57:48;;;;;;;8.75;7.50;;;;;;;;;;5033375;28;20030;-65
2021/06/03 05:00:22;;;;;;;9.73;6.63;;;;;;;;;;5033461;28;20121;-64
2021/06/03 05:02:48;;;;;;;10.43;7.05;;;;;;;;;;5030461;28;20149;-64
2021/06/03 05:05:14;;;;;;;9.52;6.63;;;;;;;;;;5033785;28;20108;-64
2021/06/03 05:07:40;;;;;;;8.63;6.60;;;;;;;;;;5034367;28;20404;-64
2021/06/03 05:10:07;;;;;;;6.38;5.57;;;;;;;;;;5034382;28;20044;-64
2021/06/03 05:12:34;;;;;;;7.53;6.20;;;;;;;;;;5033360;28;20072;-64
2021/06/03 05:14:59;;;;;;;8.02;5.90;;;;;;;;;;5031779;28;20464;-64
2021/06/03 05:17:25;;;;;;;9.27;6.22;;;;;;;;;;5031578;28;20081;-64
2021/06/03 05:19:51;;;;;;;7.93;6.00;;;;;;;;;;5035205;28;20503;-64
2021/06/03 05:22:17;;;;;;;8.63;6.00;;;;;;;;;;5032550;28;20033;-64
2021/06/03 05:24:43;;;;;;;7.22;6.47;;;;;;;;;;5032736;28;20436;-64
2021/06/03 05:27:10;;;;;;;9.25;6.38;;;;;;;;;;5033056;28;20029;-64
2021/06/03 05:29:36;;;;;;;7.82;5.60;;;;;;;;;;5030308;28;20026;-64
2021/06/03 05:32:02;;;;;;;7.25;5.88;;;;;;;;;;5036260;28;20025;-65
2021/06/03 05:34:28;;;;;;;9.15;6.15;;;;;;;;;;5032683;28;20550;-65
2021/06/03 05:36:54;;;;;;;11.70;6.10;;;;;;;;;;5031520;28;20041;-65
2021/06/03 05:39:21;;;;;;;7.47;5.88;;;;;;;;;;5032228;28;20124;-65
2021/06/03 05:41:47;;;;;;;7.72;5.65;;;;;;;;;;5034569;28;20021;-64
2021/06/03 05:44:13;;;;;;;8.45;5.85;;;;;;;;;;5039734;28;20063;-65
2021/06/03 05:46:40;;;;;;;7.90;5.55;;;;;;;;;;5040151;28;20033;-65
2021/06/03 05:49:07;;;;;;;6.57;5.03;;;;;;;;;;5039082;28;20075;-65
2021/06/03 05:51:33;;;;;;;8.57;5.30;;;;;;;;;;5038957;28;20025;-66
2021/06/03 05:53:59;;;;;;;7.80;5.45;;;;;;;;;;5042706;28;20076;-68
2021/06/03 05:56:26;;;;;;;6.40;5.20;;;;;;;;;;5030913;28;20124;-65
2021/06/03 05:58:52;;;;;;;6.80;5.18;;;;;;;;;;5034626;28;20017;-67
2021/06/03 06:01:18;;;;;;;8.00;4.85;;;;;;;;;;5031830;28;20025;-65
2021/06/03 06:06:31;;;;;;;6.82;5.05;;;;;;;;;;5021783;28;20119;-65
2021/06/03 06:08:59;;;;;;;8.27;5.20;;;;;;;;;;5030975;28;20021;-66
2021/06/03 06:11:25;;;;;;;7.67;5.10;;;;;;;;;;5030567;28;20061;-66
2021/06/03 06:13:52;;;;;;;7.35;4.78;;;;;;;;;;5040070;28;20028;-64
2021/06/03 06:16:18;;;;;;;6.60;4.78;;;;;;;;;;5037159;28;20040;-67
2021/06/03 06:18:44;;;;;;;7.68;5.15;;;;;;;;;;5034495;28;20397;-67
2021/06/03 06:21:10;;;;;;;5.60;4.68;;;;;;;;;;5024567;28;20515;-67
2021/06/03 06:23:37;;;;;;;5.50;4.47;;;;;;;;;;5026634;28;20029;-67
2021/06/03 06:26:04;;;;;;;6.25;4.50;;;;;;;;;;5048872;28;20036;-67
2021/06/03 06:28:30;;;;;;;6.22;4.18;;;;;;;;;;5030527;28;20103;-67
2021/06/03 06:30:56;;;;;;;6.82;4.50;;;;;;;;;;5029546;28;20022;-67
2021/06/03 06:33:22;;;;;;;5.25;3.88;;;;;;;;;;5030944;28;20029;-67
2021/06/03 06:35:49;;;;;;;10.13;4.65;;;;;;;;;;5026791;28;20053;-67
2021/06/03 06:38:16;;;;;;;6.07;4.18;;;;;;;;;;5031540;28;20120;-68
2021/06/03 06:40:42;;;;;;;6.13;4.45;;;;;;;;;;5030488;28;20033;-67
2021/06/03 06:43:08;;;;;;;6.63;4.25;;;;;;;;;;5030363;28;20076;-67
2021/06/03 06:45:37;;;;;;;4.72;3.72;;;;;;;;;;5030317;28;20029;-67
2021/06/03 06:48:03;;;;;;;6.57;4.38;;;;;;;;;;5029470;28;20057;-67
2021/06/03 06:50:29;;;;;;;6.78;4.03;;;;;;;;;;5016417;28;20436;-67
2021/06/03 06:52:55;;;;;;;4.40;3.63;;;;;;;;;;5025946;28;20020;-67
2021/06/03 06:55:21;;;;;;;7.22;4.13;;;;;;;;;;5019502;28;20021;-67
2021/06/03 06:57:49;;;;;;;4.85;3.92;;;;;;;;;;5025713;28;20034;-67
2021/06/03 07:00:15;;;;;;;8.18;4.88;;;;;;;;;;5028109;28;20071;-67
2021/06/03 07:02:41;;;;;;;8.13;5.60;;;;;;;;;;5025148;28;20022;-68
2021/06/03 07:05:08;;;;;;;7.82;5.00;;;;;;;;;;5032126;28;20025;-67
2021/06/03 07:07:34;;;;;;;7.70;4.30;;;;;;;;;;5033939;28;20029;-67
2021/06/03 07:10:00;;;;;;;6.15;3.88;;;;;;;;;;5034260;28;20083;-68
2021/06/03 07:12:27;;;;;;;19.45;5.20;;;;;;;;;;5034469;28;20035;-67
2021/06/03 07:14:53;;;;;;;9.13;4.47;;;;;;;;;;5031651;28;20323;-67
2021/06/03 07:17:19;;;;;;;5.35;4.10;;;;;;;;;;5022777;28;20571;-67
2021/06/03 07:19:44;;;;;;;6.43;3.55;;;;;;;;;;5034377;28;20080;-68
2021/06/03 07:22:11;;;;;;;5.28;3.72;;;;;;;;;;5033074;28;20428;-68
2021/06/03 07:24:37;;;;;;;5.28;3.58;;;;;;;;;;5030902;28;20047;-67
2021/06/03 07:27:04;;;;;;;4.80;3.53;;;;;;;;;;5021886;28;20461;-67
2021/06/03 07:29:30;;;;;;;5.07;3.08;;;;;;;;;;5029521;28;20164;-68
2021/06/03 07:31:56;;;;;;;4.13;3.33;;;;;;;;;;5053253;28;20025;-68
2021/06/03 07:34:22;;;;;;;5.00;2.97;;;;;;;;;;5036139;28;20014;-67
2021/06/03 07:36:48;;;;;;;5.63;3.17;;;;;;;;;;5034549;28;20524;-67
2021/06/03 07:39:14;;;;;;;4.53;3.60;;;;;;;;;;5033871;28;20052;-68
2021/06/03 07:41:40;;;;;;;4.95;3.60;;;;;;;;;;5029609;28;20057;-69
2021/06/03 07:44:06;;;;;;;4.30;3.53;;;;;;;;;;5037678;28;20025;-67
2021/06/03 07:46:33;;;;;;;5.43;3.55;;;;;;;;;;5036383;28;20030;-67
2021/06/03 07:48:59;;;;;;;5.77;3.57;;;;;;;;;;5034756;28;20102;-67
2021/06/03 07:51:25;;;;;;;4.38;3.67;;;;;;;;;;5034619;28;20273;-67
2021/06/03 07:53:51;;;;;;;5.72;3.78;;;;;;;;;;5032546;28;20096;-67
2021/06/03 07:56:18;;;;;;;7.15;3.90;;;;;;;;;;5034481;28;20060;-67
2021/06/03 07:58:44;;;;;;;4.65;3.30;;;;;;;;;;5035652;28;20080;-68
2021/06/03 08:01:10;;;;;;;6.10;3.80;;;;;;;;;;5034196;28;20038;-67
2021/06/03 08:03:36;;;;;;;5.60;3.58;;;;;;;;;;5033644;28;20060;-66
2021/06/03 08:06:02;;;;;;;5.15;3.70;;;;;;;;;;5033661;28;20025;-65
2021/06/03 08:08:34;;;;;;;5.50;3.25;;;;;;;;;;5031320;28;20022;-65
2021/06/03 08:11:00;;;;;;;5.18;3.78;;;;;;;;;;5037882;28;20496;-65
2021/06/03 08:13:26;;;;;;;4.72;3.50;;;;;;;;;;5033994;28;20057;-65
2021/06/03 08:15:52;;;;;;;7.07;3.63;;;;;;;;;;5032917;28;20489;-65
2021/06/03 08:18:18;;;;;;;3.80;3.50;;;;;;;;;;5034113;28;20021;-66
2021/06/03 08:20:48;;;;;;;6.55;3.58;;;;;;;;;;5031104;28;20436;-65
2021/06/03 08:23:14;;;;;;;5.35;3.67;;;;;;;;;;5034258;28;20446;-66
2021/06/03 08:25:40;;;;;;;6.25;3.38;;;;;;;;;;5034716;28;20041;-65
2021/06/03 08:28:06;;;;;;;3.83;3.42;;;;;;;;;;5032790;28;20018;-66
2021/06/03 08:30:34;;;;;;;4.03;3.30;;;;;;;;;;5033677;28;20032;-63
2021/06/03 08:33:00;;;;;;;4.85;3.45;;;;;;;;;;5031006;28;20025;-66
2021/06/03 08:35:26;;;;;;;5.45;3.55;;;;;;;;;;5030243;28;20046;-66
2021/06/03 08:37:54;;;;;;;4.28;3.35;;;;;;;;;;5034958;28;20021;-66
2021/06/03 08:40:25;;;;;;;4.60;3.40;;;;;;;;;;5033702;28;20033;-62
2021/06/03 08:42:55;;;;;;;5.85;3.60;;;;;;;;;;5033384;28;20031;-62
2021/06/03 08:45:23;;;;;;;5.90;3.65;;;;;;;;;;5033236;28;20130;-62
2021/06/03 08:47:49;;;;;;;6.20;3.45;;;;;;;;;;5030925;28;20428;-62
2021/06/03 08:50:16;;;;;;;5.53;3.90;;;;;;;;;;5034149;28;20025;-62
2021/06/03 08:52:42;;;;;;;8.40;3.55;;;;;;;;;;5034843;28;20057;-63
2021/06/03 08:55:14;;;;;;;5.60;3.33;;;;;;;;;;5033564;28;20025;-63
2021/06/03 08:57:40;;;;;;;4.80;4.05;;;;;;;;;;5032612;28;20052;-62
2021/06/03 09:00:06;;;;;;;5.63;3.90;;;;;;;;;;5033125;28;20017;-62
2021/06/03 09:02:33;;;;;;;9.25;4.28;;;;;;;;;;5030891;28;20099;-63
2021/06/03 09:04:59;;;;;;;;;;;;;;;;;;5037166;28;20473;-62
2021/06/03 09:07:26;;;;;;;6.47;3.57;;;;;;;;;;5033049;28;19911;-63
2021/06/03 09:09:52;;;;;;;4.57;3.95;;;;;;;;;;5033282;28;20048;-63
2021/06/03 09:12:19;;;;;;;4.63;3.80;;;;;;;;;;5032318;28;20464;-65
2021/06/03 09:14:47;;;;;;;5.05;3.90;;;;;;;;;;5029643;28;20052;-64
2021/06/03 09:17:14;;;;;;;5.68;3.95;;;;;;;;;;5033372;28;20095;-65
2021/06/03 09:19:51;;;;;;;4.78;3.50;;;;;;;;;;5033012;28;20515;-65
2021/06/03 09:22:37;;;;;;;7.05;3.90;;;;;;;;;;5030231;28;20029;-65
2021/06/03 09:25:23;;;;;;;5.18;4.13;;;;;;;;;;5030569;28;20026;-64
2021/06/03 09:27:49;;;;;;;5.88;4.00;;;;;;;;;;5031222;28;20052;-64
2021/06/03 09:30:15;;;;;;;4.22;3.55;;;;;;;;;;5031578;28;20025;-64
2021/06/03 09:32:56;;;;;;;4.85;4.07;;;;;;;;;;5027798;28;20489;-65
2021/06/03 09:35:22;;;;;;;4.43;3.90;;;;;;;;;;5031271;28;20033;-64
2021/06/03 09:37:49;;;;;;;5.43;4.18;;;;;;;;;;5034449;28;20547;-65
2021/06/03 09:40:21;;;;;;;5.05;4.00;;;;;;;;;;5032824;28;20546;-64
2021/06/03 09:43:07;;;;;;;4.72;3.80;;;;;;;;;;5032542;28;20432;-64
2021/06/03 09:45:51;;;;;;;4.63;3.60;;;;;;;;;;5032604;28;20025;-64
2021/06/03 09:48:36;;;;;;;8.52;3.70;;;;;;;;;;5032579;28;20028;-64
2021/06/03 09:51:22;;;;;;;6.95;3.67;;;;;;;;;;5031922;28;20024;-65
2021/06/03 09:53:59;;;;;;;6.97;3.78;;;;;;;;;;5015988;28;20463;-65
2021/06/03 09:56:27;;;;;;;7.07;3.00;;;;;;;;;;5030681;28;20048;-65
2021/06/03 09:58:53;;;;;;;;;;;;;;;;;;5035453;28;20052;-64
2021/06/03 10:01:48;;;;;;;6.82;3.50;;;;;;;;;;5032223;28;19909;-64
2021/06/03 10:04:16;;;;;;;3.83;3.33;;;;;;;;;;5019496;28;20044;-64
2021/06/03 10:06:52;;;;;;;5.43;3.15;;;;;;;;;;5032479;28;20053;-64
2021/06/03 10:09:19;;;;;;;3.70;2.80;;;;;;;;;;5032494;28;20033;-65
2021/06/03 10:11:46;;;;;;;4.43;2.80;;;;;;;;;;5028808;28;20420;-64
2021/06/03 10:14:14;;;;;;;5.30;2.97;;;;;;;;;;5033655;28;20051;-64
2021/06/03 10:16:47;;;;;;;4.93;3.10;;;;;;;;;;5034663;28;20393;-64
2021/06/03 10:19:17;;;;;;;6.13;2.95;;;;;;;;;;5032418;28;20449;-64
2021/06/03 10:21:44;;;;;;;4.50;2.58;;;;;;;;;;5032215;28;20489;-64
2021/06/03 10:24:10;;;;;;;5.45;2.85;;;;;;;;;;5031641;28;20029;-64
2021/06/03 10:26:58;;;;;;;3.50;2.20;;;;;;;;;;5028230;28;20025;-64
2021/06/03 10:29:24;;;;;;;4.88;2.60;;;;;;;;;;5044406;28;20409;-64
2021/06/03 10:31:50;;;;;;;6.35;2.72;;;;;;;;;;5033804;28;20079;-64
2021/06/03 10:34:17;;;;;;;3.70;2.50;;;;;;;;;;5032073;28;20083;-64
2021/06/03 10:36:44;;;;;;;4.68;2.80;;;;;;;;;;5031772;28;20064;-64
2021/06/03 10:39:10;;;;;;;7.35;2.67;;;;;;;;;;5032431;28;20040;-64
2021/06/03 10:41:36;;;;;;;3.50;2.40;;;;;;;;;;5031944;28;20029;-64
2021/06/03 10:44:05;;;;;;;3.65;2.80;;;;;;;;;;5039394;28;20530;-64
2021/06/03 10:46:31;;;;;;;4.13;2.50;;;;;;;;;;5035827;28;20068;-64
2021/06/03 10:48:57;;;;;;;3.42;2.65;;;;;;;;;;5036024;28;20025;-64
2021/06/03 10:51:23;;;;;;;5.05;2.80;;;;;;;;;;5036014;28;20395;-64
2021/06/03 10:53:50;;;;;;;3.85;2.92;;;;;;;;;;5032822;28;20109;-64
2021/06/03 10:56:21;;;;;;;4.60;2.50;;;;;;;;;;5036298;28;20026;-64
2021/06/03 10:58:49;;;;;;;3.70;2.78;;;;;;;;;;5037147;28;20063;-64
2021/06/03 11:01:19;;;;;;;4.18;2.65;;;;;;;;;;5035532;28;20021;-64
2021/06/03 11:03:59;;;;;;;3.85;2.75;;;;;;;;;;5036789;28;20022;-64
2021/06/03 11:06:26;;;;;;;4.45;2.50;;;;;;;;;;5035242;28;20480;-64
2021/06/03 11:08:55;;;;;;;3.13;2.50;;;;;;;;;;5033393;28;20484;-64
2021/06/03 11:11:26;;;;;;;3.83;2.92;;;;;;;;;;5035389;28;20393;-64
2021/06/03 11:13:53;;;;;;;4.05;2.70;;;;;;;;;;5037728;28;20124;-64
2021/06/03 11:16:26;;;;;;;3.05;2.28;;;;;;;;;;5034983;28;20059;-65
2021/06/03 11:18:58;;;;;;;2.90;2.40;;;;;;;;;;5035206;28;20032;-64
2021/06/03 11:21:42;;;;;;;3.35;2.40;;;;;;;;;;5035122;28;20388;-64
2021/06/03 11:24:10;;;;;;;4.60;2.72;;;;;;;;;;5035927;28;20017;-64
2021/06/03 11:26:42;;;;;;;3.25;2.70;;;;;;;;;;5015400;28;20404;-64
2021/06/03 11:29:16;;;;;;;4.68;2.88;;;;;;;;;;5046675;28;20021;-64
2021/06/03 11:31:43;;;;;;;3.90;2.58;;;;;;;;;;5035606;28;20381;-64
2021/06/03 11:34:23;;;;;;;4.95;2.53;;;;;;;;;;5035042;28;20029;-64
2021/06/03 11:36:59;;;;;;;3.78;2.70;;;;;;;;;;5034878;28;20361;-64
2021/06/03 11:39:31;;;;;;;3.38;2.63;;;;;;;;;;5034655;28;20046;-64
2021/06/03 11:42:16;;;;;;;5.85;2.78;;;;;;;;;;5033189;28;20038;-65
2021/06/03 11:45:03;;;;;;;3.35;2.35;;;;;;;;;;5015968;28;20022;-64
2021/06/03 11:47:29;;;;;;;;;;;;;;;;;;5032655;28;20057;-65
2021/06/03 11:49:58;;;;;;;4.50;2.53;;;;;;;;;;5037404;28;19932;-64
2021/06/03 11:52:24;;;;;;;3.05;2.40;;;;;;;;;;5033290;28;20024;-64
2021/06/03 11:54:53;;;;;;;4.50;2.50;;;;;;;;;;5034009;28;20462;-64
2021/06/03 11:57:20;;;;;;;4.20;2.40;;;;;;;;;;5034488;28;20033;-65
2021/06/03 11:59:56;;;;;;;3.05;2.63;;;;;;;;;;5031543;28;20022;-64
2021/06/03 12:02:33;;;;;;;3.50;2.67;;;;;;;;;;5033578;28;20029;-64
2021/06/03 12:05:09;;;;;;;4.60;2.30;;;;;;;;;;5037514;28;20052;-65
2021/06/03 12:07:41;;;;;;;3.75;2.67;;;;;;;;;;5034144;28;20040;-64
2021/06/03 12:10:07;;;;;;;2.97;2.47;;;;;;;;;;5034555;28;20140;-64
2021/06/03 12:12:37;;;;;;;3.53;2.60;;;;;;;;;;5034504;28;20424;-65
2021/06/03 12:15:15;;;;;;;3.35;2.47;;;;;;;;;;5033291;28;20382;-64
2021/06/03 12:17:41;;;;;;;3.40;2.40;;;;;;;;;;5014912;28;20497;-65
2021/06/03 12:20:21;;;;;;;4.30;2.50;;;;;;;;;;5035973;28;20469;-64
2021/06/03 12:22:47;;;;;;;3.78;2.42;;;;;;;;;;5035770;28;20473;-64
2021/06/03 12:25:13;;;;;;;4.30;2.40;;;;;;;;;;5034176;28;20542;-65
2021/06/03 12:27:44;;;;;;;4.93;2.92;;;;;;;;;;5034039;28;20128;-64
2021/06/03 12:30:10;;;;;;;4.93;2.70;;;;;;;;;;5033609;28;20029;-65
2021/06/03 12:32:39;;;;;;;3.03;2.30;;;;;;;;;;5029419;28;20075;-64
2021/06/03 12:35:07;;;;;;;3.65;2.63;;;;;;;;;;5036710;28;20090;-64
2021/06/03 12:37:38;;;;;;;4.18;2.60;;;;;;;;;;5035711;28;20116;-64
2021/06/03 12:40:23;;;;;;;3.47;2.78;;;;;;;;;;5033268;28;20037;-65
2021/06/03 12:42:49;;;;;;;4.25;2.40;;;;;;;;;;5033699;28;20037;-65
2021/06/03 12:45:18;;;;;;;4.00;2.63;;;;;;;;;;5033650;28;20021;-64
2021/06/03 12:47:45;;;;;;;2.97;2.50;;;;;;;;;;5030440;28;20030;-64
2021/06/03 12:50:11;;;;;;;4.13;2.35;;;;;;;;;;5034918;28;20025;-65
2021/06/03 12:52:41;;;;;;;4.53;2.58;;;;;;;;;;5034106;28;20388;-64
2021/06/03 12:55:13;;;;;;;3.35;2.50;;;;;;;;;;5033441;28;20083;-64
2021/06/03 12:57:48;;;;;;;4.35;2.85;;;;;;;;;;5033161;28;20064;-64
2021/06/03 13:00:19;;;;;;;3.90;2.40;;;;;;;;;;5033575;28;20036;-64
2021/06/03 13:02:49;;;;;;;7.53;2.30;;;;;;;;;;5031077;28;20528;-64
2021/06/03 13:05:18;;;;;;;4.40;2.20;;;;;;;;;;5033004;28;20029;-64
2021/06/03 13:07:45;;;;;;;4.43;2.72;;;;;;;;;;5034498;28;20018;-64
2021/06/03 13:10:22;;;;;;;3.95;2.60;;;;;;;;;;5033362;28;20033;-64
2021/06/03 13:12:48;;;;;;;3.93;2.60;;;;;;;;;;5033338;28;20080;-64
2021/06/03 13:15:14;;;;;;;4.05;2.45;;;;;;;;;;5034460;28;20270;-64
2021/06/03 13:17:43;;;;;;;3.65;2.50;;;;;;;;;;5029018;28;20053;-64
2021/06/03 13:20:13;;;;;;;6.47;2.70;;;;;;;;;;5034167;28;20172;-64
2021/06/03 13:22:46;;;;;;;4.22;2.80;;;;;;;;;;5035307;28;20406;-64
2021/06/03 13:25:15;;;;;;;4.38;2.40;;;;;;;;;;5032800;28;20125;-64
2021/06/03 13:27:45;;;;;;;4.00;2.20;;;;;;;;;;5032923;28;20029;-64
2021/06/03 13:30:19;;;;;;;4.80;2.55;;;;;;;;;;5032488;28;20393;-64
2021/06/03 13:32:46;;;;;;;3.22;2.38;;;;;;;;;;5029327;28;20029;-64
2021/06/03 13:35:30;;;;;;;4.40;2.60;;;;;;;;;;5033569;28;20061;-64
2021/06/03 13:37:56;;;;;;;3.95;2.50;;;;;;;;;;5034683;28;20516;-64
2021/06/03 13:40:23;;;;;;;4.70;2.30;;;;;;;;;;5032690;28;20061;-64
2021/06/03 13:42:54;;;;;;;4.72;2.35;;;;;;;;;;5032718;28;20040;-64
2021/06/03 13:45:23;;;;;;;4.03;2.53;;;;;;;;;;5032192;28;20071;-64
2021/06/03 13:47:51;;;;;;;3.10;2.38;;;;;;;;;;5029960;28;20038;-64
2021/06/03 13:50:20;;;;;;;;;;;;;;;;;;5033066;28;20449;-64
2021/06/03 13:52:54;;;;;;;3.25;2.50;;;;;;;;;;5033756;28;20331;-64
2021/06/03 13:55:21;;;;;;;4.38;2.20;;;;;;;;;;5031926;28;20461;-64
2021/06/03 14:00:46;;;;;;;4.35;2.40;;;;;;;;;;5032575;28;20053;-64
2021/06/03 14:03:23;;;;;;;9.05;2.58;;;;;;;;;;5032176;28;20438;-64
2021/06/03 14:05:59;;;;;;;4.50;2.58;;;;;;;;;;5030943;28;20021;-64
2021/06/03 14:08:42;;;;;;;7.75;2.70;;;;;;;;;;5030236;28;20056;-65
2021/06/03 14:11:31;;;;;;;3.60;2.50;;;;;;;;;;5043528;28;20021;-65
2021/06/03 14:14:00;;;;;;;5.03;2.72;;;;;;;;;;5034212;28;20129;-65
2021/06/03 14:16:32;;;;;;;3.42;2.38;;;;;;;;;;5031976;28;20049;-65
2021/06/03 14:19:05;;;;;;;5.75;2.40;;;;;;;;;;5032239;28;20025;-65
2021/06/03 14:21:34;;;;;;;3.38;2.38;;;;;;;;;;5031961;28;20035;-65
2021/06/03 14:24:03;;;;;;;5.30;2.33;;;;;;;;;;5031284;28;20438;-65
2021/06/03 14:26:41;;;;;;;4.00;2.60;;;;;;;;;;5029710;28;20095;-65
2021/06/03 14:29:07;;;;;;;3.33;2.20;;;;;;;;;;5042817;28;20032;-64
2021/06/03 14:32:00;;;;;;;5.63;2.40;;;;;;;;;;5032499;28;20025;-65
2021/06/03 14:34:27;;;;;;;5.03;2.58;;;;;;;;;;5029376;28;20121;-65
2021/06/03 14:36:53;;;;;;;;;;;;;;;;;;5032099;28;20037;-64
2021/06/03 14:39:19;;;;;;;4.18;2.50;;;;;;;;;;5031949;28;19970;-65
2021/06/03 14:41:45;;;;;;;6.60;2.75;;;;;;;;;;5028317;28;20424;-64
2021/06/03 14:44:14;;;;;;;17.27;3.10;;;;;;;;;;5033322;28;20033;-64
2021/06/03 14:46:43;;;;;;;3.05;2.42;;;;;;;;;;5033841;28;20025;-64
2021/06/03 14:49:09;;;;;;;3.67;2.40;;;;;;;;;;5032079;28;20037;-64
2021/06/03 14:51:35;;;;;;;4.65;2.78;;;;;;;;;;5031592;28;20029;-64
2021/06/03 14:54:03;;;;;;;4.35;2.60;;;;;;;;;;5030793;28;20602;-64
2021/06/03 14:56:29;;;;;;;5.13;2.47;;;;;;;;;;5028966;28;20502;-64